sensor_id;sensor_type;location;lat;lon;timestamp;P1;durP1;ratioP1;P2;durP2;ratioP2
76640;SDS011;65538;50.798;6.064;2023-02-28T00:00:02;8.97;;;4.27;;
76640;SDS011;65538;50.798;6.064;2023-02-28T00:02:34;10.10;;;4.15;;
76640;SDS011;65538;50.798;6.064;2023-02-28T00:05:00;7.13;;;4.57;;
76640;SDS011;65538;50.798;6.064;2023-02-28T00:07:26;8.05;;;3.67;;
76640;SDS011;65538;50.798;6.064;2023-02-28T00:09:52;8.10;;;4.05;;
76640;SDS011;65538;50.798;6.064;2023-02-28T00:12:17;6.90;;;3.40;;
76640;SDS011;65538;50.798;6.064;2023-02-28T00:14:42;7.30;;;4.30;;
76640;SDS011;65538;50.798;6.064;2023-02-28T00:17:07;9.70;;;3.43;;
76640;SDS011;65538;50.798;6.064;2023-02-28T00:19:32;7.93;;;3.63;;
76640;SDS011;65538;50.798;6.064;2023-02-28T00:21:58;8.40;;;3.67;;
76640;SDS011;65538;50.798;6.064;2023-02-28T00:24:23;10.70;;;4.30;;
76640;SDS011;65538;50.798;6.064;2023-02-28T00:26:48;12.53;;;5.37;;
76640;SDS011;65538;50.798;6.064;2023-02-28T00:29:13;9.50;;;4.47;;
76640;SDS011;65538;50.798;6.064;2023-02-28T00:31:38;9.63;;;3.90;;
76640;SDS011;65538;50.798;6.064;2023-02-28T00:34:04;7.43;;;3.60;;
76640;SDS011;65538;50.798;6.064;2023-02-28T00:36:29;6.67;;;3.20;;
76640;SDS011;65538;50.798;6.064;2023-02-28T00:38:54;6.27;;;3.03;;
76640;SDS011;65538;50.798;6.064;2023-02-28T00:41:19;6.77;;;3.40;;
76640;SDS011;65538;50.798;6.064;2023-02-28T00:43:44;7.60;;;3.30;;
76640;SDS011;65538;50.798;6.064;2023-02-28T00:46:10;10.17;;;3.67;;
76640;SDS011;65538;50.798;6.064;2023-02-28T00:48:35;8.70;;;3.03;;
76640;SDS011;65538;50.798;6.064;2023-02-28T00:51:00;5.87;;;3.03;;
76640;SDS011;65538;50.798;6.064;2023-02-28T00:53:26;9.07;;;3.25;;
76640;SDS011;65538;50.798;6.064;2023-02-28T00:55:51;6.13;;;3.30;;
76640;SDS011;65538;50.798;6.064;2023-02-28T00:58:16;8.17;;;3.97;;
76640;SDS011;65538;50.798;6.064;2023-02-28T01:00:42;8.13;;;3.17;;
76640;SDS011;65538;50.798;6.064;2023-02-28T01:03:07;7.87;;;3.37;;
76640;SDS011;65538;50.798;6.064;2023-02-28T01:05:32;5.63;;;2.70;;
76640;SDS011;65538;50.798;6.064;2023-02-28T01:10:45;6.05;;;2.60;;
76640;SDS011;65538;50.798;6.064;2023-02-28T01:13:11;6.33;;;2.57;;
76640;SDS011;65538;50.798;6.064;2023-02-28T01:15:36;8.07;;;3.00;;
76640;SDS011;65538;50.798;6.064;2023-02-28T01:18:02;6.25;;;3.05;;
76640;SDS011;65538;50.798;6.064;2023-02-28T01:20:28;5.70;;;3.53;;
76640;SDS011;65538;50.798;6.064;2023-02-28T01:22:53;5.50;;;2.47;;
76640;SDS011;65538;50.798;6.064;2023-02-28T01:25:18;8.37;;;2.60;;
76640;SDS011;65538;50.798;6.064;2023-02-28T01:27:43;10.17;;;3.63;;
76640;SDS011;65538;50.798;6.064;2023-02-28T01:30:09;6.97;;;3.10;;
76640;SDS011;65538;50.798;6.064;2023-02-28T01:32:34;5.22;;;3.20;;
76640;SDS011;65538;50.798;6.064;2023-02-28T01:34:59;7.78;;;3.35;;
76640;SDS011;65538;50.798;6.064;2023-02-28T01:37:25;5.87;;;2.80;;
76640;SDS011;65538;50.798;6.064;2023-02-28T01:39:50;5.47;;;3.20;;
76640;SDS011;65538;50.798;6.064;2023-02-28T01:42:15;9.20;;;3.23;;
76640;SDS011;65538;50.798;6.064;2023-02-28T01:45:00;6.83;;;2.70;;
76640;SDS011;65538;50.798;6.064;2023-02-28T01:47:30;6.72;;;3.00;;
76640;SDS011;65538;50.798;6.064;2023-02-28T01:49:56;11.18;;;3.10;;
76640;SDS011;65538;50.798;6.064;2023-02-28T01:52:22;6.00;;;2.92;;
76640;SDS011;65538;50.798;6.064;2023-02-28T01:54:51;12.55;;;3.33;;
76640;SDS011;65538;50.798;6.064;2023-02-28T01:57:17;6.63;;;3.03;;
76640;SDS011;65538;50.798;6.064;2023-02-28T02:02:11;9.38;;;3.05;;
76640;SDS011;65538;50.798;6.064;2023-02-28T02:04:38;5.43;;;2.58;;
76640;SDS011;65538;50.798;6.064;2023-02-28T02:07:05;7.07;;;2.75;;
76640;SDS011;65538;50.798;6.064;2023-02-28T02:09:30;6.90;;;3.13;;
76640;SDS011;65538;50.798;6.064;2023-02-28T02:11:55;5.37;;;2.93;;
76640;SDS011;65538;50.798;6.064;2023-02-28T02:14:26;7.18;;;2.85;;
76640;SDS011;65538;50.798;6.064;2023-02-28T02:17:56;5.70;;;3.10;;
76640;SDS011;65538;50.798;6.064;2023-02-28T02:20:12;7.00;;;3.10;;
76640;SDS011;65538;50.798;6.064;2023-02-28T02:22:55;6.50;;;3.38;;
76640;SDS011;65538;50.798;6.064;2023-02-28T02:25:28;6.25;;;2.75;;
76640;SDS011;65538;50.798;6.064;2023-02-28T02:33:01;7.50;;;2.60;;
76640;SDS011;65538;50.798;6.064;2023-02-28T02:38:09;7.68;;;2.70;;
76640;SDS011;65538;50.798;6.064;2023-02-28T02:40:38;7.22;;;3.33;;
76640;SDS011;65538;50.798;6.064;2023-02-28T02:43:11;7.68;;;3.42;;
76640;SDS011;65538;50.798;6.064;2023-02-28T02:45:45;6.55;;;3.30;;
76640;SDS011;65538;50.798;6.064;2023-02-28T02:48:13;8.98;;;3.20;;
76640;SDS011;65538;50.798;6.064;2023-02-28T02:50:42;8.82;;;3.10;;
76640;SDS011;65538;50.798;6.064;2023-02-28T02:53:08;7.30;;;3.50;;
76640;SDS011;65538;50.798;6.064;2023-02-28T02:55:35;9.80;;;3.95;;
76640;SDS011;65538;50.798;6.064;2023-02-28T02:58:02;6.82;;;3.00;;
76640;SDS011;65538;50.798;6.064;2023-02-28T03:00:49;7.95;;;3.33;;
76640;SDS011;65538;50.798;6.064;2023-02-28T03:03:16;6.15;;;3.28;;
76640;SDS011;65538;50.798;6.064;2023-02-28T03:05:47;6.65;;;3.03;;
76640;SDS011;65538;50.798;6.064;2023-02-28T03:08:13;8.02;;;3.28;;
76640;SDS011;65538;50.798;6.064;2023-02-28T03:10:40;8.70;;;3.20;;
76640;SDS011;65538;50.798;6.064;2023-02-28T03:16:04;9.38;;;4.05;;
76640;SDS011;65538;50.798;6.064;2023-02-28T03:23:45;6.82;;;3.10;;
76640;SDS011;65538;50.798;6.064;2023-02-28T03:26:18;8.88;;;3.35;;
76640;SDS011;65538;50.798;6.064;2023-02-28T03:28:57;9.52;;;3.47;;
76640;SDS011;65538;50.798;6.064;2023-02-28T03:33:58;10.93;;;4.22;;
76640;SDS011;65538;50.798;6.064;2023-02-28T03:36:29;10.27;;;4.35;;
76640;SDS011;65538;50.798;6.064;2023-02-28T03:39:02;9.82;;;3.58;;
76640;SDS011;65538;50.798;6.064;2023-02-28T03:41:31;10.55;;;3.70;;
76640;SDS011;65538;50.798;6.064;2023-02-28T03:43:59;10.23;;;3.88;;
76640;SDS011;65538;50.798;6.064;2023-02-28T03:46:26;10.02;;;3.80;;
76640;SDS011;65538;50.798;6.064;2023-02-28T03:48:55;8.85;;;4.25;;
76640;SDS011;65538;50.798;6.064;2023-02-28T03:51:22;7.18;;;3.70;;
76640;SDS011;65538;50.798;6.064;2023-02-28T03:53:59;11.23;;;4.18;;
76640;SDS011;65538;50.798;6.064;2023-02-28T03:56:30;9.95;;;3.72;;
76640;SDS011;65538;50.798;6.064;2023-02-28T04:02:04;6.00;;;2.95;;
76640;SDS011;65538;50.798;6.064;2023-02-28T04:04:23;8.93;;;3.72;;
76640;SDS011;65538;50.798;6.064;2023-02-28T04:06:49;6.17;;;2.93;;
76640;SDS011;65538;50.798;6.064;2023-02-28T04:09:15;6.38;;;3.10;;
76640;SDS011;65538;50.798;6.064;2023-02-28T04:11:42;5.23;;;2.80;;
76640;SDS011;65538;50.798;6.064;2023-02-28T04:14:07;6.55;;;3.55;;
76640;SDS011;65538;50.798;6.064;2023-02-28T04:16:34;7.47;;;3.17;;
76640;SDS011;65538;50.798;6.064;2023-02-28T04:18:59;6.80;;;3.40;;
76640;SDS011;65538;50.798;6.064;2023-02-28T04:21:31;6.78;;;3.47;;
76640;SDS011;65538;50.798;6.064;2023-02-28T04:23:57;5.63;;;3.15;;
76640;SDS011;65538;50.798;6.064;2023-02-28T04:26:25;7.15;;;3.17;;
76640;SDS011;65538;50.798;6.064;2023-02-28T04:28:50;10.40;;;3.25;;
76640;SDS011;65538;50.798;6.064;2023-02-28T04:31:16;7.47;;;3.73;;
76640;SDS011;65538;50.798;6.064;2023-02-28T04:33:41;10.13;;;3.57;;
76640;SDS011;65538;50.798;6.064;2023-02-28T04:36:07;7.82;;;3.38;;
76640;SDS011;65538;50.798;6.064;2023-02-28T04:38:35;7.65;;;3.60;;
76640;SDS011;65538;50.798;6.064;2023-02-28T04:41:00;9.10;;;3.97;;
76640;SDS011;65538;50.798;6.064;2023-02-28T04:43:26;7.60;;;3.47;;
76640;SDS011;65538;50.798;6.064;2023-02-28T04:45:51;6.43;;;3.40;;
76640;SDS011;65538;50.798;6.064;2023-02-28T04:48:17;7.50;;;3.07;;
76640;SDS011;65538;50.798;6.064;2023-02-28T04:50:42;9.70;;;3.37;;
76640;SDS011;65538;50.798;6.064;2023-02-28T04:53:07;9.23;;;3.83;;
76640;SDS011;65538;50.798;6.064;2023-02-28T04:55:32;5.77;;;3.03;;
76640;SDS011;65538;50.798;6.064;2023-02-28T04:57:58;6.70;;;3.47;;
76640;SDS011;65538;50.798;6.064;2023-02-28T05:00:23;8.47;;;3.57;;
76640;SDS011;65538;50.798;6.064;2023-02-28T05:02:48;5.70;;;2.85;;
76640;SDS011;65538;50.798;6.064;2023-02-28T05:05:14;9.53;;;3.13;;
76640;SDS011;65538;50.798;6.064;2023-02-28T05:07:43;6.28;;;3.30;;
76640;SDS011;65538;50.798;6.064;2023-02-28T05:10:08;4.47;;;2.70;;
76640;SDS011;65538;50.798;6.064;2023-02-28T05:12:34;7.93;;;3.85;;
76640;SDS011;65538;50.798;6.064;2023-02-28T05:14:59;5.70;;;3.40;;
76640;SDS011;65538;50.798;6.064;2023-02-28T05:17:26;8.00;;;3.45;;
76640;SDS011;65538;50.798;6.064;2023-02-28T05:19:51;9.57;;;3.17;;
76640;SDS011;65538;50.798;6.064;2023-02-28T05:22:16;8.17;;;3.13;;
76640;SDS011;65538;50.798;6.064;2023-02-28T05:24:41;9.60;;;3.92;;
76640;SDS011;65538;50.798;6.064;2023-02-28T05:27:07;7.40;;;3.15;;
76640;SDS011;65538;50.798;6.064;2023-02-28T05:29:32;12.00;;;3.83;;
76640;SDS011;65538;50.798;6.064;2023-02-28T05:31:59;6.57;;;3.42;;
76640;SDS011;65538;50.798;6.064;2023-02-28T05:34:24;9.57;;;3.47;;
76640;SDS011;65538;50.798;6.064;2023-02-28T05:36:49;7.70;;;3.70;;
76640;SDS011;65538;50.798;6.064;2023-02-28T05:39:14;13.90;;;3.70;;
76640;SDS011;65538;50.798;6.064;2023-02-28T05:41:42;7.77;;;3.27;;
76640;SDS011;65538;50.798;6.064;2023-02-28T05:44:08;7.45;;;3.85;;
76640;SDS011;65538;50.798;6.064;2023-02-28T05:46:34;8.43;;;3.67;;
76640;SDS011;65538;50.798;6.064;2023-02-28T05:48:59;12.25;;;3.35;;
76640;SDS011;65538;50.798;6.064;2023-02-28T05:51:25;7.65;;;3.60;;
76640;SDS011;65538;50.798;6.064;2023-02-28T05:53:51;12.27;;;4.60;;
76640;SDS011;65538;50.798;6.064;2023-02-28T05:56:16;11.47;;;4.47;;
76640;SDS011;65538;50.798;6.064;2023-02-28T05:58:41;11.23;;;5.07;;
76640;SDS011;65538;50.798;6.064;2023-02-28T06:03:51;17.42;;;6.38;;
76640;SDS011;65538;50.798;6.064;2023-02-28T06:06:16;18.02;;;6.05;;
76640;SDS011;65538;50.798;6.064;2023-02-28T06:08:41;15.90;;;6.23;;
76640;SDS011;65538;50.798;6.064;2023-02-28T06:11:08;24.85;;;7.45;;
76640;SDS011;65538;50.798;6.064;2023-02-28T06:13:34;21.05;;;6.93;;
76640;SDS011;65538;50.798;6.064;2023-02-28T06:16:03;16.37;;;6.17;;
76640;SDS011;65538;50.798;6.064;2023-02-28T06:18:28;20.25;;;7.15;;
76640;SDS011;65538;50.798;6.064;2023-02-28T06:20:53;17.80;;;7.40;;
76640;SDS011;65538;50.798;6.064;2023-02-28T06:23:19;20.98;;;7.75;;
76640;SDS011;65538;50.798;6.064;2023-02-28T06:25:45;19.57;;;7.10;;
76640;SDS011;65538;50.798;6.064;2023-02-28T06:28:10;18.65;;;7.55;;
76640;SDS011;65538;50.798;6.064;2023-02-28T06:30:36;14.30;;;6.23;;
76640;SDS011;65538;50.798;6.064;2023-02-28T06:33:01;16.75;;;5.65;;
76640;SDS011;65538;50.798;6.064;2023-02-28T06:35:30;17.38;;;5.57;;
76640;SDS011;65538;50.798;6.064;2023-02-28T06:37:55;12.30;;;6.10;;
76640;SDS011;65538;50.798;6.064;2023-02-28T06:40:20;12.87;;;5.37;;
76640;SDS011;65538;50.798;6.064;2023-02-28T06:42:45;11.77;;;5.20;;
76640;SDS011;65538;50.798;6.064;2023-02-28T06:45:11;11.15;;;5.25;;
76640;SDS011;65538;50.798;6.064;2023-02-28T06:47:37;13.55;;;4.93;;
76640;SDS011;65538;50.798;6.064;2023-02-28T06:50:03;13.10;;;5.30;;
76640;SDS011;65538;50.798;6.064;2023-02-28T06:52:28;9.13;;;4.82;;
76640;SDS011;65538;50.798;6.064;2023-02-28T06:54:53;13.03;;;6.50;;
76640;SDS011;65538;50.798;6.064;2023-02-28T06:57:25;12.88;;;6.35;;
76640;SDS011;65538;50.798;6.064;2023-02-28T06:59:50;13.07;;;5.72;;
76640;SDS011;65538;50.798;6.064;2023-02-28T07:02:15;13.93;;;5.37;;
76640;SDS011;65538;50.798;6.064;2023-02-28T07:04:41;13.63;;;5.73;;
76640;SDS011;65538;50.798;6.064;2023-02-28T07:07:09;16.38;;;7.93;;
76640;SDS011;65538;50.798;6.064;2023-02-28T07:09:34;14.07;;;6.27;;
76640;SDS011;65538;50.798;6.064;2023-02-28T07:12:00;15.90;;;6.33;;
76640;SDS011;65538;50.798;6.064;2023-02-28T07:14:25;11.85;;;5.72;;
76640;SDS011;65538;50.798;6.064;2023-02-28T07:16:51;12.57;;;6.18;;
76640;SDS011;65538;50.798;6.064;2023-02-28T07:19:16;10.63;;;5.35;;
76640;SDS011;65538;50.798;6.064;2023-02-28T07:21:41;14.00;;;6.77;;
76640;SDS011;65538;50.798;6.064;2023-02-28T07:24:06;12.80;;;6.20;;
76640;SDS011;65538;50.798;6.064;2023-02-28T07:26:32;10.77;;;5.87;;
76640;SDS011;65538;50.798;6.064;2023-02-28T07:28:59;12.80;;;5.35;;
76640;SDS011;65538;50.798;6.064;2023-02-28T07:31:24;12.90;;;5.63;;
76640;SDS011;65538;50.798;6.064;2023-02-28T07:33:49;12.87;;;5.40;;
76640;SDS011;65538;50.798;6.064;2023-02-28T07:36:15;10.97;;;4.70;;
76640;SDS011;65538;50.798;6.064;2023-02-28T07:38:43;10.57;;;4.95;;
76640;SDS011;65538;50.798;6.064;2023-02-28T07:41:08;11.00;;;5.45;;
76640;SDS011;65538;50.798;6.064;2023-02-28T07:43:34;10.27;;;5.07;;
76640;SDS011;65538;50.798;6.064;2023-02-28T07:46:03;13.48;;;4.80;;
76640;SDS011;65538;50.798;6.064;2023-02-28T07:48:29;13.95;;;5.43;;
76640;SDS011;65538;50.798;6.064;2023-02-28T07:50:55;9.40;;;4.90;;
76640;SDS011;65538;50.798;6.064;2023-02-28T07:53:20;10.25;;;4.85;;
76640;SDS011;65538;50.798;6.064;2023-02-28T07:55:45;10.03;;;4.90;;
76640;SDS011;65538;50.798;6.064;2023-02-28T07:58:10;11.07;;;4.83;;
76640;SDS011;65538;50.798;6.064;2023-02-28T08:00:36;10.23;;;5.00;;
76640;SDS011;65538;50.798;6.064;2023-02-28T08:03:01;8.63;;;5.00;;
76640;SDS011;65538;50.798;6.064;2023-02-28T08:05:26;11.27;;;4.67;;
76640;SDS011;65538;50.798;6.064;2023-02-28T08:07:51;13.80;;;4.57;;
76640;SDS011;65538;50.798;6.064;2023-02-28T08:10:18;8.88;;;4.57;;
76640;SDS011;65538;50.798;6.064;2023-02-28T08:12:43;14.00;;;4.67;;
76640;SDS011;65538;50.798;6.064;2023-02-28T08:15:08;8.70;;;4.43;;
76640;SDS011;65538;50.798;6.064;2023-02-28T08:17:34;8.82;;;4.60;;
76640;SDS011;65538;50.798;6.064;2023-02-28T08:19:59;8.67;;;4.20;;
76640;SDS011;65538;50.798;6.064;2023-02-28T08:22:24;12.43;;;5.43;;
76640;SDS011;65538;50.798;6.064;2023-02-28T08:24:49;10.60;;;4.77;;
76640;SDS011;65538;50.798;6.064;2023-02-28T08:27:14;7.63;;;4.00;;
76640;SDS011;65538;50.798;6.064;2023-02-28T08:29:40;10.43;;;4.87;;
76640;SDS011;65538;50.798;6.064;2023-02-28T08:32:06;7.55;;;3.88;;
76640;SDS011;65538;50.798;6.064;2023-02-28T08:34:31;8.80;;;3.72;;
76640;SDS011;65538;50.798;6.064;2023-02-28T08:36:57;8.87;;;3.60;;
76640;SDS011;65538;50.798;6.064;2023-02-28T08:39:22;7.38;;;3.55;;
76640;SDS011;65538;50.798;6.064;2023-02-28T08:41:47;8.00;;;3.50;;
76640;SDS011;65538;50.798;6.064;2023-02-28T08:44:12;18.60;;;3.93;;
76640;SDS011;65538;50.798;6.064;2023-02-28T08:46:38;8.30;;;3.70;;
76640;SDS011;65538;50.798;6.064;2023-02-28T08:49:03;7.60;;;3.47;;
76640;SDS011;65538;50.798;6.064;2023-02-28T08:51:28;7.40;;;2.97;;
76640;SDS011;65538;50.798;6.064;2023-02-28T08:53:54;6.97;;;3.80;;
76640;SDS011;65538;50.798;6.064;2023-02-28T08:56:21;7.22;;;3.35;;
76640;SDS011;65538;50.798;6.064;2023-02-28T08:58:46;6.32;;;3.00;;
76640;SDS011;65538;50.798;6.064;2023-02-28T09:01:13;4.80;;;3.20;;
76640;SDS011;65538;50.798;6.064;2023-02-28T09:03:39;6.63;;;3.95;;
76640;SDS011;65538;50.798;6.064;2023-02-28T09:06:06;9.43;;;3.05;;
76640;SDS011;65538;50.798;6.064;2023-02-28T09:08:31;5.45;;;3.15;;
76640;SDS011;65538;50.798;6.064;2023-02-28T09:10:57;5.43;;;2.90;;
76640;SDS011;65538;50.798;6.064;2023-02-28T09:13:23;9.88;;;3.13;;
76640;SDS011;65538;50.798;6.064;2023-02-28T09:15:48;5.80;;;2.95;;
76640;SDS011;65538;50.798;6.064;2023-02-28T09:18:13;8.80;;;2.70;;
76640;SDS011;65538;50.798;6.064;2023-02-28T09:20:39;4.83;;;2.57;;
76640;SDS011;65538;50.798;6.064;2023-02-28T09:23:05;4.85;;;1.85;;
76640;SDS011;65538;50.798;6.064;2023-02-28T09:25:30;6.15;;;2.53;;
76640;SDS011;65538;50.798;6.064;2023-02-28T09:27:55;11.87;;;2.57;;
76640;SDS011;65538;50.798;6.064;2023-02-28T09:30:20;6.03;;;3.13;;
76640;SDS011;65538;50.798;6.064;2023-02-28T09:32:45;5.27;;;2.87;;
76640;SDS011;65538;50.798;6.064;2023-02-28T09:35:23;8.05;;;2.90;;
76640;SDS011;65538;50.798;6.064;2023-02-28T09:37:49;7.78;;;2.90;;
76640;SDS011;65538;50.798;6.064;2023-02-28T09:40:16;6.43;;;2.25;;
76640;SDS011;65538;50.798;6.064;2023-02-28T09:42:44;10.13;;;2.80;;
76640;SDS011;65538;50.798;6.064;2023-02-28T09:45:14;6.20;;;2.20;;
76640;SDS011;65538;50.798;6.064;2023-02-28T09:47:41;5.20;;;2.75;;
76640;SDS011;65538;50.798;6.064;2023-02-28T09:50:20;4.53;;;2.70;;
76640;SDS011;65538;50.798;6.064;2023-02-28T09:52:48;5.30;;;2.05;;
76640;SDS011;65538;50.798;6.064;2023-02-28T09:57:40;4.03;;;2.53;;
76640;SDS011;65538;50.798;6.064;2023-02-28T10:02:52;5.90;;;2.30;;
76640;SDS011;65538;50.798;6.064;2023-02-28T10:05:20;6.35;;;2.47;;
76640;SDS011;65538;50.798;6.064;2023-02-28T10:10:20;5.20;;;2.25;;
76640;SDS011;65538;50.798;6.064;2023-02-28T10:12:46;3.88;;;1.80;;
76640;SDS011;65538;50.798;6.064;2023-02-28T10:15:15;7.55;;;3.15;;
76640;SDS011;65538;50.798;6.064;2023-02-28T10:17:42;4.15;;;2.35;;
76640;SDS011;65538;50.798;6.064;2023-02-28T10:20:12;3.70;;;2.08;;
76640;SDS011;65538;50.798;6.064;2023-02-28T10:25:18;5.03;;;2.25;;
76640;SDS011;65538;50.798;6.064;2023-02-28T10:27:44;3.97;;;1.83;;
76640;SDS011;65538;50.798;6.064;2023-02-28T10:30:09;3.67;;;1.73;;
76640;SDS011;65538;50.798;6.064;2023-02-28T10:32:38;3.88;;;1.85;;
76640;SDS011;65538;50.798;6.064;2023-02-28T10:35:24;3.83;;;1.98;;
76640;SDS011;65538;50.798;6.064;2023-02-28T10:37:54;4.10;;;1.52;;
76640;SDS011;65538;50.798;6.064;2023-02-28T10:45:14;3.65;;;1.70;;
76640;SDS011;65538;50.798;6.064;2023-02-28T10:48:01;3.08;;;1.90;;
76640;SDS011;65538;50.798;6.064;2023-02-28T10:50:35;3.20;;;1.83;;
76640;SDS011;65538;50.798;6.064;2023-02-28T10:55:55;3.25;;;1.73;;
76640;SDS011;65538;50.798;6.064;2023-02-28T10:58:21;4.72;;;1.95;;
76640;SDS011;65538;50.798;6.064;2023-02-28T11:00:47;4.50;;;1.95;;
76640;SDS011;65538;50.798;6.064;2023-02-28T11:03:28;3.72;;;2.35;;
76640;SDS011;65538;50.798;6.064;2023-02-28T11:05:54;5.97;;;2.20;;
76640;SDS011;65538;50.798;6.064;2023-02-28T11:08:19;4.20;;;1.77;;
76640;SDS011;65538;50.798;6.064;2023-02-28T11:10:45;6.13;;;2.20;;
76640;SDS011;65538;50.798;6.064;2023-02-28T11:13:17;5.03;;;1.98;;
76640;SDS011;65538;50.798;6.064;2023-02-28T11:15:49;4.47;;;2.38;;
76640;SDS011;65538;50.798;6.064;2023-02-28T11:20:51;5.95;;;2.75;;
76640;SDS011;65538;50.798;6.064;2023-02-28T11:23:17;7.20;;;3.17;;
76640;SDS011;65538;50.798;6.064;2023-02-28T11:25:54;13.52;;;6.10;;
76640;SDS011;65538;50.798;6.064;2023-02-28T11:28:25;5.32;;;2.03;;
76640;SDS011;65538;50.798;6.064;2023-02-28T11:31:00;4.57;;;2.47;;
76640;SDS011;65538;50.798;6.064;2023-02-28T11:33:29;3.72;;;1.90;;
76640;SDS011;65538;50.798;6.064;2023-02-28T11:36:00;4.03;;;2.05;;
76640;SDS011;65538;50.798;6.064;2023-02-28T11:38:26;6.00;;;2.30;;
76640;SDS011;65538;50.798;6.064;2023-02-28T11:40:59;4.80;;;2.35;;
76640;SDS011;65538;50.798;6.064;2023-02-28T11:43:35;7.55;;;3.35;;
76640;SDS011;65538;50.798;6.064;2023-02-28T11:46:10;4.20;;;2.45;;
76640;SDS011;65538;50.798;6.064;2023-02-28T11:48:46;7.53;;;4.15;;
76640;SDS011;65538;50.798;6.064;2023-02-28T11:56:07;5.30;;;2.80;;
76640;SDS011;65538;50.798;6.064;2023-02-28T12:09:10;4.60;;;2.53;;
76640;SDS011;65538;50.798;6.064;2023-02-28T12:11:51;6.68;;;3.25;;
76640;SDS011;65538;50.798;6.064;2023-02-28T12:14:44;6.28;;;3.55;;
76640;SDS011;65538;50.798;6.064;2023-02-28T12:17:06;7.50;;;3.63;;
76640;SDS011;65538;50.798;6.064;2023-02-28T12:19:48;6.55;;;3.40;;
76640;SDS011;65538;50.798;6.064;2023-02-28T12:27:13;4.85;;;2.08;;
76640;SDS011;65538;50.798;6.064;2023-02-28T12:34:37;5.22;;;2.92;;
76640;SDS011;65538;50.798;6.064;2023-02-28T12:37:07;7.38;;;2.90;;
76640;SDS011;65538;50.798;6.064;2023-02-28T12:39:40;4.25;;;2.55;;
76640;SDS011;65538;50.798;6.064;2023-02-28T12:42:13;5.18;;;2.55;;
76640;SDS011;65538;50.798;6.064;2023-02-28T12:44:44;5.07;;;2.88;;
76640;SDS011;65538;50.798;6.064;2023-02-28T12:47:13;5.07;;;2.90;;
76640;SDS011;65538;50.798;6.064;2023-02-28T12:49:40;5.53;;;2.67;;
76640;SDS011;65538;50.798;6.064;2023-02-28T12:52:07;4.85;;;2.53;;
76640;SDS011;65538;50.798;6.064;2023-02-28T12:57:06;6.70;;;2.23;;
76640;SDS011;65538;50.798;6.064;2023-02-28T12:59:37;4.38;;;2.20;;
76640;SDS011;65538;50.798;6.064;2023-02-28T13:02:09;5.50;;;2.88;;
76640;SDS011;65538;50.798;6.064;2023-02-28T13:04:43;5.82;;;3.15;;
76640;SDS011;65538;50.798;6.064;2023-02-28T13:07:21;4.05;;;2.28;;
76640;SDS011;65538;50.798;6.064;2023-02-28T13:09:54;10.27;;;2.60;;
76640;SDS011;65538;50.798;6.064;2023-02-28T13:12:20;5.82;;;2.40;;
76640;SDS011;65538;50.798;6.064;2023-02-28T13:14:45;4.25;;;2.22;;
76640;SDS011;65538;50.798;6.064;2023-02-28T13:17:11;4.07;;;2.67;;
76640;SDS011;65538;50.798;6.064;2023-02-28T13:19:42;8.07;;;2.88;;
76640;SDS011;65538;50.798;6.064;2023-02-28T13:22:52;5.45;;;2.63;;
76640;SDS011;65538;50.798;6.064;2023-02-28T13:24:57;5.13;;;3.30;;
76640;SDS011;65538;50.798;6.064;2023-02-28T13:27:23;5.50;;;2.53;;
76640;SDS011;65538;50.798;6.064;2023-02-28T13:29:49;6.28;;;2.50;;
76640;SDS011;65538;50.798;6.064;2023-02-28T13:32:18;6.32;;;2.42;;
76640;SDS011;65538;50.798;6.064;2023-02-28T13:35:12;4.75;;;2.22;;
76640;SDS011;65538;50.798;6.064;2023-02-28T13:37:33;5.40;;;2.60;;
76640;SDS011;65538;50.798;6.064;2023-02-28T13:42:48;4.53;;;2.20;;
76640;SDS011;65538;50.798;6.064;2023-02-28T13:45:22;4.20;;;2.95;;
76640;SDS011;65538;50.798;6.064;2023-02-28T13:47:55;5.13;;;2.67;;
76640;SDS011;65538;50.798;6.064;2023-02-28T13:50:37;5.60;;;3.00;;
76640;SDS011;65538;50.798;6.064;2023-02-28T14:05:29;6.50;;;2.75;;
76640;SDS011;65538;50.798;6.064;2023-02-28T14:07:56;4.03;;;2.42;;
76640;SDS011;65538;50.798;6.064;2023-02-28T14:10:26;5.82;;;2.80;;
76640;SDS011;65538;50.798;6.064;2023-02-28T14:13:00;7.50;;;3.03;;
76640;SDS011;65538;50.798;6.064;2023-02-28T14:18:05;6.10;;;2.88;;
76640;SDS011;65538;50.798;6.064;2023-02-28T14:20:31;4.95;;;2.80;;
76640;SDS011;65538;50.798;6.064;2023-02-28T14:28:25;5.20;;;2.92;;
76640;SDS011;65538;50.798;6.064;2023-02-28T14:38:47;5.95;;;2.90;;
76640;SDS011;65538;50.798;6.064;2023-02-28T14:41:17;5.40;;;2.70;;
76640;SDS011;65538;50.798;6.064;2023-02-28T14:43:51;5.03;;;3.33;;
76640;SDS011;65538;50.798;6.064;2023-02-28T14:46:16;5.07;;;3.50;;
76640;SDS011;65538;50.798;6.064;2023-02-28T14:48:44;5.03;;;2.70;;
76640;SDS011;65538;50.798;6.064;2023-02-28T14:51:10;4.70;;;2.83;;
76640;SDS011;65538;50.798;6.064;2023-02-28T14:53:36;5.30;;;2.90;;
76640;SDS011;65538;50.798;6.064;2023-02-28T14:56:02;4.57;;;3.15;;
76640;SDS011;65538;50.798;6.064;2023-02-28T14:58:28;8.75;;;3.03;;
76640;SDS011;65538;50.798;6.064;2023-02-28T15:00:55;5.43;;;2.88;;
76640;SDS011;65538;50.798;6.064;2023-02-28T15:05:53;4.93;;;2.95;;
76640;SDS011;65538;50.798;6.064;2023-02-28T15:08:18;5.38;;;3.25;;
76640;SDS011;65538;50.798;6.064;2023-02-28T15:13:19;5.10;;;2.95;;
76640;SDS011;65538;50.798;6.064;2023-02-28T15:18:28;5.50;;;3.23;;
76640;SDS011;65538;50.798;6.064;2023-02-28T15:20:55;5.35;;;3.10;;
76640;SDS011;65538;50.798;6.064;2023-02-28T15:23:21;5.63;;;3.13;;
76640;SDS011;65538;50.798;6.064;2023-02-28T15:25:47;4.82;;;3.00;;
76640;SDS011;65538;50.798;6.064;2023-02-28T15:28:15;6.47;;;3.35;;
76640;SDS011;65538;50.798;6.064;2023-02-28T15:30:49;8.15;;;2.92;;
76640;SDS011;65538;50.798;6.064;2023-02-28T15:33:25;4.90;;;3.13;;
76640;SDS011;65538;50.798;6.064;2023-02-28T15:35:51;4.60;;;3.00;;
76640;SDS011;65538;50.798;6.064;2023-02-28T15:38:27;4.35;;;2.70;;
76640;SDS011;65538;50.798;6.064;2023-02-28T15:40:58;4.23;;;2.60;;
76640;SDS011;65538;50.798;6.064;2023-02-28T15:43:31;5.63;;;2.97;;
76640;SDS011;65538;50.798;6.064;2023-02-28T15:50:55;6.68;;;2.88;;
76640;SDS011;65538;50.798;6.064;2023-02-28T15:53:25;5.57;;;3.40;;
76640;SDS011;65538;50.798;6.064;2023-02-28T15:55:52;6.25;;;3.25;;
76640;SDS011;65538;50.798;6.064;2023-02-28T15:58:18;8.13;;;3.35;;
76640;SDS011;65538;50.798;6.064;2023-02-28T16:00:44;6.90;;;3.50;;
76640;SDS011;65538;50.798;6.064;2023-02-28T16:03:27;5.97;;;3.15;;
76640;SDS011;65538;50.798;6.064;2023-02-28T16:06:08;7.20;;;3.45;;
76640;SDS011;65538;50.798;6.064;2023-02-28T16:08:33;7.45;;;3.42;;
76640;SDS011;65538;50.798;6.064;2023-02-28T16:10:58;7.80;;;3.73;;
76640;SDS011;65538;50.798;6.064;2023-02-28T16:13:24;5.60;;;3.17;;
76640;SDS011;65538;50.798;6.064;2023-02-28T16:15:49;6.10;;;3.40;;
76640;SDS011;65538;50.798;6.064;2023-02-28T16:18:16;8.23;;;3.42;;
76640;SDS011;65538;50.798;6.064;2023-02-28T16:20:41;6.53;;;3.57;;
76640;SDS011;65538;50.798;6.064;2023-02-28T16:23:06;7.53;;;3.30;;
76640;SDS011;65538;50.798;6.064;2023-02-28T16:25:34;6.57;;;3.20;;
76640;SDS011;65538;50.798;6.064;2023-02-28T16:27:59;8.57;;;3.70;;
76640;SDS011;65538;50.798;6.064;2023-02-28T16:30:26;6.00;;;3.53;;
76640;SDS011;65538;50.798;6.064;2023-02-28T16:32:53;7.40;;;3.50;;
76640;SDS011;65538;50.798;6.064;2023-02-28T16:35:19;9.18;;;4.03;;
76640;SDS011;65538;50.798;6.064;2023-02-28T16:37:45;7.20;;;3.28;;
76640;SDS011;65538;50.798;6.064;2023-02-28T16:40:17;6.23;;;3.40;;
76640;SDS011;65538;50.798;6.064;2023-02-28T16:42:43;6.22;;;3.70;;
76640;SDS011;65538;50.798;6.064;2023-02-28T16:45:14;9.43;;;3.72;;
76640;SDS011;65538;50.798;6.064;2023-02-28T16:47:40;6.18;;;3.40;;
76640;SDS011;65538;50.798;6.064;2023-02-28T16:50:18;5.27;;;3.23;;